createdAt,value
2018-09-02T00:01:40.151Z,101887.73
2018-09-02T00:04:10.130Z,101886.94
2018-09-02T00:06:40.088Z,101881.64
2018-09-02T00:09:09.953Z,101885.61
2018-09-02T00:11:39.941Z,101876.09
2018-09-02T00:14:10.215Z,101876.52
2018-09-02T00:16:42.354Z,101877.55
2018-09-02T00:19:13.157Z,101871.72
2018-09-02T00:21:43.129Z,101871.85
2018-09-02T00:24:13.394Z,101869.84
2018-09-02T00:26:43.420Z,101868.22
2018-09-02T00:29:13.503Z,101871.34
2018-09-02T00:31:43.500Z,101870.04
2018-09-02T00:34:13.560Z,101863.55
2018-09-02T00:36:43.517Z,101867.49
2018-09-02T00:39:13.416Z,101863.80
2018-09-02T00:41:43.796Z,101858.35
2018-09-02T00:44:14.470Z,101857.03
2018-09-02T00:46:44.524Z,101857.43
2018-09-02T00:49:14.535Z,101854.77
2018-09-02T00:51:44.449Z,101851.60
2018-09-02T00:54:14.456Z,101852.45
2018-09-02T00:56:44.472Z,101855.78
2018-09-02T00:59:14.382Z,101856.23
2018-09-02T01:01:44.269Z,101854.09
2018-09-02T01:04:14.183Z,101850.95
2018-09-02T01:06:44.514Z,101856.19
2018-09-02T01:09:14.484Z,101849.91
2018-09-02T01:11:44.426Z,101859.27
2018-09-02T01:14:14.818Z,101862.28
2018-09-02T01:16:45.016Z,101862.19
2018-09-02T01:19:15.000Z,101864.27
2018-09-02T01:21:45.689Z,101862.53
2018-09-02T01:24:15.653Z,101870.59
2018-09-02T01:26:45.641Z,101864.18
2018-09-02T01:29:16.272Z,101875.72
2018-09-02T01:31:46.187Z,101875.11
2018-09-02T01:34:16.160Z,101878.69
2018-09-02T01:36:46.216Z,101886.64
2018-09-02T01:39:16.151Z,101878.70
2018-09-02T01:41:46.625Z,101877.75
2018-09-02T01:44:16.652Z,101881.82
2018-09-02T01:46:46.692Z,101882.63
2018-09-02T01:49:16.996Z,101883.13
2018-09-02T01:51:47.129Z,101880.02
2018-09-02T01:54:17.379Z,101873.27
2018-09-02T01:56:47.390Z,101875.44
2018-09-02T01:59:17.397Z,101876.06
2018-09-02T02:01:47.458Z,101872.36
2018-09-02T02:04:17.428Z,101870.23
2018-09-02T02:06:47.503Z,101870.70
2018-09-02T02:09:17.770Z,101875.06
2018-09-02T02:11:47.756Z,101873.36
2018-09-02T02:14:17.854Z,101866.52
2018-09-02T02:16:47.916Z,101869.36
2018-09-02T02:19:17.814Z,101871.86
2018-09-02T02:21:47.864Z,101870.03
2018-09-02T02:24:18.146Z,101861.31
2018-09-02T02:26:48.105Z,101867.86
2018-09-02T02:29:18.114Z,101866.27
2018-09-02T02:31:48.175Z,101862.77
2018-09-02T02:34:18.094Z,101856.65
2018-09-02T02:36:48.349Z,101857.17
2018-09-02T02:39:18.800Z,101859.83
2018-09-02T02:41:49.018Z,101852.19
2018-09-02T02:44:19.062Z,101851.83
2018-09-02T02:46:49.076Z,101854.51
2018-09-02T02:49:19.040Z,101848.65
2018-09-02T02:51:49.001Z,101844.84
2018-09-02T02:54:18.986Z,101845.05
2018-09-02T02:56:49.139Z,101835.61
2018-09-02T02:59:19.110Z,101838.70
2018-09-02T03:01:49.506Z,101829.47
2018-09-02T03:04:19.740Z,101830.67
2018-09-02T03:06:50.098Z,101830.80
2018-09-02T03:09:20.110Z,101824.11
2018-09-02T03:11:50.547Z,101829.90
2018-09-02T03:14:20.565Z,101829.00
2018-09-02T03:16:50.545Z,101828.00
2018-09-02T03:19:20.599Z,101825.16
2018-09-02T03:21:50.599Z,101825.19
2018-09-02T03:24:20.716Z,101819.97
2018-09-02T03:26:50.808Z,101822.03
2018-09-02T03:29:21.200Z,101821.44
2018-09-02T03:31:51.220Z,101818.09
2018-09-02T03:34:21.729Z,101819.64
2018-09-02T03:36:52.289Z,101824.62
2018-09-02T03:39:22.350Z,101822.34
2018-09-02T03:41:52.660Z,101817.82
2018-09-02T03:44:22.872Z,101818.88
2018-09-02T03:46:52.863Z,101822.56
2018-09-02T03:49:23.273Z,101821.23
2018-09-02T03:51:53.291Z,101814.66
2018-09-02T03:54:23.350Z,101813.91
2018-09-02T03:56:53.475Z,101812.70
2018-09-02T03:59:23.588Z,101810.55
2018-09-02T04:01:53.609Z,101814.81
2018-09-02T04:04:23.930Z,101811.27
2018-09-02T04:06:53.963Z,101815.69
2018-09-02T04:09:24.402Z,101805.58
2018-09-02T04:11:54.535Z,101811.59
2018-09-02T04:14:24.589Z,101811.25
2018-09-02T04:16:54.656Z,101812.95
2018-09-02T04:19:24.672Z,101806.01
2018-09-02T04:21:55.050Z,101804.84
2018-09-02T04:24:25.114Z,101801.64
2018-09-02T04:26:55.227Z,101802.36
2018-09-02T04:29:25.278Z,101804.96
2018-09-02T04:31:55.311Z,101804.20
2018-09-02T04:34:31.406Z,101800.00
2018-09-02T04:37:01.562Z,101798.23
2018-09-02T04:39:31.375Z,101791.92
2018-09-02T04:42:01.111Z,101790.79
2018-09-02T04:47:31.273Z,101790.28
2018-09-02T04:50:15.718Z,101791.28
2018-09-02T04:52:45.858Z,101795.00
2018-09-02T04:55:15.936Z,101793.44
2018-09-02T04:57:47.859Z,101795.90
2018-09-02T05:00:18.825Z,101794.98
2018-09-02T05:02:49.273Z,101794.34
2018-09-02T05:05:20.185Z,101794.03
2018-09-02T05:07:50.256Z,101792.40
2018-09-02T05:10:20.090Z,101794.33
2018-09-02T05:12:49.899Z,101798.30
2018-09-02T05:15:19.723Z,101792.42
2018-09-02T05:17:49.950Z,101789.77
2018-09-02T05:20:28.304Z,101792.94
2018-09-02T05:22:58.227Z,101798.69
2018-09-02T05:25:28.109Z,101798.48
2018-09-02T05:27:58.806Z,101800.66
2018-09-02T05:30:51.532Z,101797.38
2018-09-02T05:33:22.645Z,101800.84
2018-09-02T05:35:53.667Z,101797.93
2018-09-02T05:38:23.725Z,101799.90
2018-09-02T05:40:53.808Z,101795.23
2018-09-02T05:43:36.685Z,101796.34
2018-09-02T05:46:07.221Z,101799.89
2018-09-02T05:48:37.821Z,101800.09
2018-09-02T05:51:07.782Z,101798.02
2018-09-02T05:53:38.012Z,101798.81
2018-09-02T05:56:14.813Z,101795.59
2018-09-02T05:58:51.424Z,101799.58
2018-09-02T06:01:21.523Z,101799.81
2018-09-02T06:03:52.339Z,101801.79
2018-09-02T06:06:25.979Z,101804.56
2018-09-02T06:09:03.116Z,101807.23
2018-09-02T06:11:41.258Z,101808.19
2018-09-02T06:14:15.782Z,101810.68
2018-09-02T06:16:46.636Z,101815.50
2018-09-02T06:19:16.693Z,101823.45
2018-09-02T06:21:46.743Z,101818.84
2018-09-02T06:24:24.364Z,101821.23
2018-09-02T06:26:54.217Z,101811.65
2018-09-02T06:29:24.351Z,101813.69
2018-09-02T06:31:54.253Z,101820.09
2018-09-02T06:34:24.564Z,101822.75
2018-09-02T06:37:02.077Z,101812.45
2018-09-02T06:39:40.923Z,101812.05
2018-09-02T06:42:10.902Z,101817.19
2018-09-02T06:44:41.012Z,101823.32
2018-09-02T06:47:11.973Z,101812.77
2018-09-02T06:49:42.894Z,101815.39
2018-09-02T06:52:13.083Z,101816.47
2018-09-02T06:54:43.298Z,101823.33
2018-09-02T06:57:13.772Z,101814.20
2018-09-02T06:59:43.859Z,101815.34
2018-09-02T07:02:13.888Z,101811.88
2018-09-02T07:04:43.794Z,101816.30
2018-09-02T07:07:14.469Z,101812.65
2018-09-02T07:09:44.726Z,101809.47
2018-09-02T07:12:14.841Z,101809.98
2018-09-02T07:14:45.078Z,101811.91
2018-09-02T07:17:15.125Z,101812.61
2018-09-02T07:19:45.174Z,101813.30
2018-09-02T07:22:15.238Z,101815.22
2018-09-02T07:24:45.503Z,101806.75
2018-09-02T07:27:15.573Z,101810.28
2018-09-02T07:29:47.029Z,101810.38
2018-09-02T07:32:17.071Z,101807.78
2018-09-02T07:34:47.120Z,101800.05
2018-09-02T07:37:23.238Z,101802.97
2018-09-02T07:39:55.731Z,101797.56
2018-09-02T07:42:25.721Z,101794.66
2018-09-02T07:44:55.817Z,101798.63
2018-09-02T07:47:26.264Z,101795.60
2018-09-02T07:49:56.242Z,101792.41
2018-09-02T07:52:26.322Z,101791.22
2018-09-02T07:54:56.363Z,101794.50
2018-09-02T07:57:27.553Z,101793.11
2018-09-02T07:59:57.547Z,101789.28
2018-09-02T08:02:27.618Z,101792.54
2018-09-02T08:04:57.606Z,101788.01
2018-09-02T08:07:27.663Z,101785.02
2018-09-02T08:09:57.635Z,101781.84
2018-09-02T08:12:27.670Z,101784.88
2018-09-02T08:14:57.545Z,101785.83
2018-09-02T08:17:27.520Z,101791.11
2018-09-02T08:20:03.157Z,101779.91
2018-09-02T08:22:34.525Z,101777.09
2018-09-02T08:25:16.280Z,101782.09
2018-09-02T08:27:47.292Z,101774.78
2018-09-02T08:30:17.194Z,101772.77
2018-09-02T08:32:47.120Z,101771.23
2018-09-02T08:35:17.088Z,101769.12
2018-09-02T08:37:49.856Z,101767.94
2018-09-02T08:40:19.866Z,101770.52
2018-09-02T08:42:49.772Z,101763.66
2018-09-02T08:45:19.678Z,101762.20
2018-09-02T08:47:49.605Z,101762.88
2018-09-02T08:50:19.585Z,101755.50
2018-09-02T08:52:49.497Z,101755.34
2018-09-02T08:55:19.357Z,101747.20
2018-09-02T08:57:49.267Z,101752.88
2018-09-02T09:00:21.418Z,101748.87
2018-09-02T09:02:53.647Z,101744.28
2018-09-02T09:05:23.975Z,101754.21
2018-09-02T09:07:54.097Z,101749.72
2018-09-02T09:10:25.859Z,101751.61
2018-09-02T09:12:55.752Z,101752.08
2018-09-02T09:15:29.040Z,101751.59
2018-09-02T09:17:58.989Z,101744.65
2018-09-02T09:20:28.775Z,101744.86
2018-09-02T09:22:58.723Z,101736.09
2018-09-02T09:25:28.641Z,101731.41
2018-09-02T09:27:58.512Z,101740.33
2018-09-02T09:30:28.397Z,101749.75
2018-09-02T09:32:58.566Z,101742.97
2018-09-02T09:35:29.268Z,101736.38
2018-09-02T09:37:59.229Z,101731.02
2018-09-02T09:40:29.208Z,101737.11
2018-09-02T09:43:00.404Z,101729.05
2018-09-02T09:45:31.889Z,101736.84
2018-09-02T09:48:01.757Z,101726.16
2018-09-02T09:50:32.217Z,101727.73
2018-09-02T09:53:03.204Z,101722.45
2018-09-02T09:55:33.346Z,101720.98
2018-09-02T09:58:03.335Z,101717.19
2018-09-02T10:00:38.529Z,101716.78
2018-09-02T10:03:08.443Z,101708.39
2018-09-02T10:05:38.322Z,101715.02
2018-09-02T10:08:08.232Z,101713.89
2018-09-02T10:10:38.135Z,101704.45
2018-09-02T10:13:08.062Z,101692.20
2018-09-02T10:15:38.420Z,101692.50
2018-09-02T10:18:08.447Z,101689.93
2018-09-02T10:20:38.267Z,101691.06
2018-09-02T10:23:08.023Z,101689.45
2018-09-02T10:25:43.896Z,101685.95
2018-09-02T10:28:13.917Z,101677.09
2018-09-02T10:30:43.838Z,101677.45
2018-09-02T10:33:13.788Z,101667.22
2018-09-02T10:35:43.592Z,101670.55
2018-09-02T10:38:13.528Z,101659.11
2018-09-02T10:40:43.512Z,101665.22
2018-09-02T10:43:13.360Z,101658.97
2018-09-02T10:45:43.210Z,101658.90
2018-09-02T10:48:13.251Z,101657.41
2018-09-02T10:50:43.078Z,101653.25
2018-09-02T10:56:08.724Z,101645.76
2018-09-02T10:58:38.652Z,101648.44
2018-09-02T11:01:08.839Z,101638.59
2018-09-02T11:03:38.655Z,101640.50
2018-09-02T11:06:08.455Z,101642.05
2018-09-02T11:08:38.416Z,101634.39
2018-09-02T11:11:08.376Z,101640.81
2018-09-02T11:13:38.381Z,101634.93
2018-09-02T11:16:08.306Z,101628.62
2018-09-02T11:18:38.258Z,101635.20
2018-09-02T11:21:08.184Z,101619.86
2018-09-02T11:23:38.165Z,101619.84
2018-09-02T11:26:08.858Z,101612.22
2018-09-02T11:28:38.931Z,101613.27
2018-09-02T11:31:08.753Z,101601.80
2018-09-02T11:33:38.511Z,101603.23
2018-09-02T11:36:08.003Z,101592.59
2018-09-02T11:38:37.977Z,101599.10
2018-09-02T11:41:07.909Z,101601.91
2018-09-02T11:43:37.893Z,101597.48
2018-09-02T11:46:08.009Z,101594.08
2018-09-02T11:48:37.821Z,101590.71
2018-09-02T11:51:08.072Z,101586.55
2018-09-02T11:53:38.225Z,101588.08
2018-09-02T11:56:08.189Z,101574.41
2018-09-02T11:58:38.063Z,101570.87
2018-09-02T12:01:08.006Z,101562.69
2018-09-02T12:03:38.181Z,101569.97
2018-09-02T12:06:08.073Z,101562.58
2018-09-02T12:08:37.973Z,101570.58
2018-09-02T12:11:07.822Z,101568.00
2018-09-02T12:13:37.750Z,101553.31
2018-09-02T12:16:07.611Z,101552.59
2018-09-02T12:18:37.505Z,101541.92
2018-09-02T12:21:07.495Z,101542.23
2018-09-02T12:23:37.320Z,101551.20
2018-09-02T12:26:07.255Z,101536.34
2018-09-02T12:28:37.070Z,101536.92
2018-09-02T12:31:06.868Z,101533.89
2018-09-02T12:33:36.911Z,101535.97
2018-09-02T12:36:08.471Z,101531.37
2018-09-02T12:38:38.700Z,101527.16
2018-09-02T12:41:08.646Z,101521.01
2018-09-02T12:43:38.598Z,101516.78
2018-09-02T12:46:08.320Z,101515.09
2018-09-02T12:48:37.992Z,101512.69
2018-09-02T12:51:07.782Z,101522.59
2018-09-02T12:53:37.410Z,101509.55
2018-09-02T12:56:07.075Z,101507.97
2018-09-02T12:58:36.934Z,101504.34
2018-09-02T13:01:06.664Z,101498.32
2018-09-02T13:03:36.714Z,101507.14
2018-09-02T13:06:06.350Z,101501.58
2018-09-02T13:08:36.094Z,101511.22
2018-09-02T13:11:05.835Z,101502.19
2018-09-02T13:13:35.468Z,101502.17
2018-09-02T13:16:05.179Z,101495.87
2018-09-02T13:18:34.878Z,101487.22
2018-09-02T13:21:05.433Z,101479.14
2018-09-02T13:23:35.064Z,101484.40
2018-09-02T13:26:04.717Z,101482.97
2018-09-02T13:28:34.363Z,101482.60
2018-09-02T13:31:03.990Z,101473.67
2018-09-02T13:33:33.667Z,101472.58
2018-09-02T13:36:03.777Z,101463.73
2018-09-02T13:38:33.727Z,101474.14
2018-09-02T13:41:03.320Z,101459.56
2018-09-02T13:43:32.912Z,101457.25
2018-09-02T13:46:02.510Z,101458.41
2018-09-02T13:48:32.247Z,101453.86
2018-09-02T13:51:01.808Z,101441.02
2018-09-02T13:53:31.471Z,101439.42
2018-09-02T13:56:01.110Z,101436.94
2018-09-02T13:58:30.802Z,101437.44
2018-09-02T14:01:00.488Z,101444.48
2018-09-02T14:03:30.067Z,101433.77
2018-09-02T14:05:59.734Z,101423.69
2018-09-02T14:08:29.358Z,101429.62
2018-09-02T14:10:58.999Z,101430.00
2018-09-02T14:13:28.624Z,101421.35
2018-09-02T14:15:58.316Z,101416.77
2018-09-02T14:18:27.988Z,101417.05
2018-09-02T14:20:57.676Z,101411.77
2018-09-02T14:23:27.345Z,101407.33
2018-09-02T14:25:57.027Z,101414.19
2018-09-02T14:28:26.641Z,101415.25
2018-09-02T14:30:56.322Z,101408.45
2018-09-02T14:33:25.963Z,101412.95
2018-09-02T14:35:55.736Z,101407.23
2018-09-02T14:38:25.366Z,101399.48
2018-09-02T14:40:55.033Z,101394.23
2018-09-02T14:43:24.711Z,101385.99
2018-09-02T14:45:54.362Z,101394.31
2018-09-02T14:48:23.968Z,101378.79
2018-09-02T14:50:53.640Z,101382.50
2018-09-02T14:53:23.234Z,101377.17
2018-09-02T14:55:52.856Z,101378.42
2018-09-02T14:58:22.570Z,101380.44
2018-09-02T15:00:52.246Z,101376.90
2018-09-02T15:03:21.889Z,101377.84
2018-09-02T15:05:51.603Z,101375.42
2018-09-02T15:08:21.270Z,101376.77
2018-09-02T15:10:50.990Z,101373.75
2018-09-02T15:13:20.866Z,101378.52
2018-09-02T15:15:50.473Z,101374.05
2018-09-02T15:18:20.176Z,101374.98
2018-09-02T15:20:49.809Z,101373.36
2018-09-02T15:23:19.457Z,101379.22
2018-09-02T15:25:49.354Z,101370.00
2018-09-02T15:28:19.487Z,101371.44
2018-09-02T15:30:49.131Z,101373.50
2018-09-02T15:33:18.804Z,101366.77
2018-09-02T15:35:48.731Z,101364.38
2018-09-02T15:38:18.400Z,101356.26
2018-09-02T15:40:48.077Z,101360.14
2018-09-02T15:43:17.812Z,101359.44
2018-09-02T15:45:47.498Z,101356.88
2018-09-02T15:48:17.143Z,101354.39
2018-09-02T15:50:46.784Z,101353.05
2018-09-02T15:53:16.474Z,101342.69
2018-09-02T15:55:46.485Z,101342.48
2018-09-02T15:58:17.055Z,101342.88
2018-09-02T16:00:46.994Z,101336.32
2018-09-02T16:03:16.728Z,101335.78
2018-09-02T16:05:46.424Z,101332.48
2018-09-02T16:08:16.083Z,101328.43
2018-09-02T16:10:45.685Z,101327.55
2018-09-02T16:13:15.288Z,101324.72
2018-09-02T16:15:44.923Z,101330.21
2018-09-02T16:18:14.556Z,101331.67
2018-09-02T16:20:44.208Z,101328.42
2018-09-02T16:23:13.839Z,101333.89
2018-09-02T16:25:43.471Z,101333.43
2018-09-02T16:28:25.746Z,101343.47
2018-09-02T16:30:55.400Z,101342.91
2018-09-02T16:33:25.060Z,101344.45
2018-09-02T16:35:54.749Z,101344.86
2018-09-02T16:38:41.974Z,101344.02
2018-09-02T16:41:11.896Z,101348.82
2018-09-02T16:43:41.451Z,101345.73
2018-09-02T16:46:11.110Z,101355.41
2018-09-02T16:48:41.021Z,101350.58
2018-09-02T16:51:10.909Z,101350.45
2018-09-02T16:53:40.582Z,101343.20
2018-09-02T16:56:10.248Z,101349.13
2018-09-02T16:58:39.978Z,101340.91
2018-09-02T17:01:09.569Z,101343.21
2018-09-02T17:03:42.290Z,101342.63
2018-09-02T17:06:11.964Z,101341.17
2018-09-02T17:08:41.560Z,101339.50
2018-09-02T17:11:11.194Z,101338.88
2018-09-02T17:13:40.859Z,101336.23
2018-09-02T17:16:10.481Z,101340.92
2018-09-02T17:18:40.191Z,101334.91
2018-09-02T17:21:20.540Z,101334.30
2018-09-02T17:23:50.925Z,101338.98
2018-09-02T17:26:20.562Z,101333.81
2018-09-02T17:28:51.191Z,101333.19
2018-09-02T17:31:21.888Z,101331.02
2018-09-02T17:33:53.551Z,101328.02
2018-09-02T17:36:28.027Z,101335.97
2018-09-02T17:38:58.115Z,101325.24
2018-09-02T17:41:28.072Z,101324.87
2018-09-02T17:44:03.242Z,101323.28
2018-09-02T17:46:33.017Z,101323.62
2018-09-02T17:49:02.887Z,101319.52
2018-09-02T17:51:32.858Z,101312.41
2018-09-02T17:54:02.462Z,101313.95
2018-09-02T17:56:32.159Z,101316.95
2018-09-02T17:59:01.929Z,101322.52
2018-09-02T18:01:31.664Z,101323.06
2018-09-02T18:04:01.521Z,101326.55
2018-09-02T18:06:31.167Z,101332.46
2018-09-02T18:09:00.818Z,101334.16
2018-09-02T18:11:30.444Z,101330.02
2018-09-02T18:14:00.103Z,101333.25
2018-09-02T18:16:30.168Z,101331.93
2018-09-02T18:18:59.859Z,101335.29
2018-09-02T18:21:29.553Z,101336.11
2018-09-02T18:23:59.356Z,101333.86
2018-09-02T18:26:29.096Z,101333.09
2018-09-02T18:28:58.815Z,101346.11
2018-09-02T18:31:28.496Z,101352.46
2018-09-02T18:33:58.985Z,101348.34
2018-09-02T18:36:43.004Z,101351.23
2018-09-02T18:39:15.863Z,101355.69
2018-09-02T18:41:45.691Z,101357.61
2018-09-02T18:44:25.245Z,101356.77
2018-09-02T18:46:57.061Z,101366.36
2018-09-02T18:49:28.430Z,101371.06
2018-09-02T18:51:58.557Z,101367.39
2018-09-02T18:54:30.405Z,101372.83
2018-09-02T18:57:00.210Z,101364.77
2018-09-02T18:59:29.921Z,101377.28
2018-09-02T19:01:59.679Z,101377.45
2018-09-02T19:04:30.911Z,101371.27
2018-09-02T19:07:06.688Z,101374.48
2018-09-02T19:09:36.582Z,101377.94
2018-09-02T19:12:06.863Z,101376.28
2018-09-02T19:14:36.844Z,101377.69
2018-09-02T19:17:06.748Z,101382.95
2018-09-02T19:19:36.491Z,101382.47
2018-09-02T19:22:06.690Z,101375.86
2018-09-02T19:24:36.447Z,101370.72
2018-09-02T19:27:06.281Z,101369.45
2018-09-02T19:29:36.366Z,101368.52
2018-09-02T19:32:06.253Z,101367.32
2018-09-02T19:34:35.973Z,101372.69
2018-09-02T19:37:05.786Z,101370.33
2018-09-02T19:39:35.499Z,101373.89
2018-09-02T19:42:05.315Z,101369.58
2018-09-02T19:44:35.031Z,101366.08
2018-09-02T19:47:04.958Z,101361.80
2018-09-02T19:49:34.865Z,101356.66
2018-09-02T19:52:05.169Z,101355.63
2018-09-02T19:54:34.851Z,101349.17
2018-09-02T19:57:04.628Z,101357.75
2018-09-02T19:59:34.434Z,101346.22
2018-09-02T20:02:04.483Z,101346.02
2018-09-02T20:04:46.955Z,101341.41
2018-09-02T20:07:16.776Z,101348.14
2018-09-02T20:09:46.407Z,101345.86
2018-09-02T20:12:16.191Z,101348.14
2018-09-02T20:14:45.941Z,101347.41
2018-09-02T20:17:15.661Z,101345.34
2018-09-02T20:19:46.263Z,101344.97
2018-09-02T20:22:15.939Z,101340.05
2018-09-02T20:24:45.741Z,101338.97
2018-09-02T20:27:16.264Z,101331.87
2018-09-02T20:29:46.032Z,101324.47
2018-09-02T20:32:15.668Z,101330.92
2018-09-02T20:34:45.346Z,101328.09
2018-09-02T20:37:15.011Z,101324.11
2018-09-02T20:39:45.432Z,101324.30
2018-09-02T20:42:15.358Z,101329.14
2018-09-02T20:44:48.904Z,101325.59
2018-09-02T20:47:18.998Z,101323.13
2018-09-02T20:49:49.070Z,101326.57
2018-09-02T20:52:20.810Z,101329.58
2018-09-02T20:54:51.015Z,101326.34
2018-09-02T20:57:22.027Z,101322.92
2018-09-02T20:59:51.974Z,101322.53
2018-09-02T21:02:22.003Z,101320.92
2018-09-02T21:04:51.746Z,101318.28
2018-09-02T21:07:21.442Z,101317.20
2018-09-02T21:09:51.431Z,101313.44
2018-09-02T21:12:21.095Z,101312.23
2018-09-02T21:14:50.925Z,101315.88
2018-09-02T21:17:20.604Z,101313.36
2018-09-02T21:20:12.461Z,101309.58
2018-09-02T21:22:42.287Z,101304.19
2018-09-02T21:25:12.218Z,101311.95
2018-09-02T21:27:41.960Z,101307.26
2018-09-02T21:30:11.623Z,101301.02
2018-09-02T21:32:41.297Z,101307.29
2018-09-02T21:35:16.903Z,101304.78
2018-09-02T21:37:46.998Z,101308.78
2018-09-02T21:40:17.097Z,101291.97
2018-09-02T21:42:48.032Z,101297.23
2018-09-02T21:45:17.739Z,101298.69
2018-09-02T21:47:47.362Z,101298.97
2018-09-02T21:50:17.600Z,101298.75
2018-09-02T21:52:47.667Z,101292.45
2018-09-02T21:55:17.595Z,101283.38
2018-09-02T21:57:47.445Z,101285.27
2018-09-02T22:00:18.033Z,101282.46
2018-09-02T22:02:47.666Z,101287.49
2018-09-02T22:05:18.327Z,101283.22
2018-09-02T22:07:48.176Z,101284.11
2018-09-02T22:10:18.036Z,101277.97
2018-09-02T22:13:19.363Z,101278.98
2018-09-02T22:16:08.831Z,101276.52
2018-09-02T22:28:14.910Z,101270.75
2018-09-02T22:30:44.751Z,101263.51
2018-09-02T22:33:15.063Z,101261.77
2018-09-02T22:35:45.632Z,101254.86
2018-09-02T22:41:40.149Z,101258.45
2018-09-02T22:44:09.959Z,101257.80
2018-09-02T22:46:39.727Z,101259.96
2018-09-02T22:49:09.428Z,101258.06
2018-09-02T22:51:40.346Z,101257.80
2018-09-02T22:54:11.025Z,101253.41
2018-09-02T22:56:41.725Z,101250.98
2018-09-02T22:59:11.849Z,101245.39
2018-09-02T23:01:41.978Z,101242.08
2018-09-02T23:04:12.148Z,101248.98
2018-09-02T23:06:41.923Z,101243.11
2018-09-02T23:09:12.316Z,101240.87
2018-09-02T23:12:06.612Z,101237.27
2018-09-02T23:14:36.755Z,101234.80
2018-09-02T23:17:06.475Z,101235.48
2018-09-02T23:20:21.516Z,101233.72
2018-09-02T23:23:09.002Z,101233.52
2018-09-02T23:25:38.913Z,101229.91
2018-09-02T23:28:09.769Z,101222.81
2018-09-02T23:31:08.320Z,101223.26
2018-09-02T23:33:38.402Z,101224.23
2018-09-02T23:36:34.889Z,101215.07
2018-09-02T23:39:06.590Z,101211.80
2018-09-02T23:41:52.994Z,101204.48
2018-09-02T23:44:22.800Z,101203.69
2018-09-02T23:46:52.641Z,101200.14
2018-09-02T23:49:37.162Z,101197.50
2018-09-02T23:52:07.391Z,101195.47
2018-09-02T23:55:07.761Z,101188.59
2018-09-02T23:57:37.615Z,101184.14
